ADDS METAR Data INFO
IDs: Format: Raw Decoded Include TAF

Data at: 2250 UTC 16 Jan 2018

PALH 162153Z VRB03KT 10SM CLR 00/M02 A2924 RMK AO2 SLP903 T00001022
PALH 162053Z VRB03KT 10SM FEW070 M01/M03 A2925 RMK AO2 SLP904 T10111033 51006
PALH 161953Z 02005KT 10SM FEW065 M02/M03 A2924 RMK AO2 SLP903 T10171033
PALH 161853Z 00000KT 10SM SCT006 BKN070 M02/M04 A2925 RMK AO2 SLP904 T10171039
PALH 161825Z VRB05KT 10SM FEW009 OVC065 M01/M03 A2925 RMK AO2 T10111033
PALH 161753Z 01005KT 10SM FEW048 BKN060 M01/M03 A2923 RMK AO2 UPE11 SLP899 P0000 60000 T10111033 11006 21017 56012
PALH 161653Z 11003KT 10SM UP OVC065 M01/M03 A2924 RMK AO2 UPB31 SLP902 P0000 T10061033
PALH 161553Z 04004KT 10SM FEW035 OVC065 M01/M04 A2923 RMK AO2 SLP900 T10061039
PALH 161453Z 08004KT 10SM FEW015 BKN070 BKN110 M01/M04 A2927 RMK AO2 SLP911 T10111039 56035
PALH 161353Z 03005KT 10SM OVC075 M01/M04 A2928 RMK AO2 PRESFR SLP917 T10111039
PALH 161253Z 08005KT 10SM OVC100 M01/M04 A2932 RMK AO2 SLP929 T10111039
PALH 161153Z 06006KT 10SM OVC085 M01/M04 A2937 RMK AO2 SLP946 T10061039 11006 21022 58030
PALH 161121Z 04005KT 10SM SCT014 OVC080 M01/M04 A2938 RMK AO2 T10111039
PALH 161102Z 05005KT 10SM BKN016 BKN043 OVC075 M01/M04 A2939 RMK AO2 T10111039
PALH 161053Z 05005KT 10SM SCT016 BKN042 OVC075 M01/M04 A2940 RMK AO2 SLP956 T10111044
PALH 161038Z 06006KT 10SM SCT016 BKN060 OVC070 M01/M04 A2941 RMK AO2 T10111044
PALH 161014Z 06006KT 10SM OVC015 M01/M04 A2942 RMK AO2 T10111044
PALH 160953Z 05007KT 10SM OVC014 M01/M04 A2944 RMK AO2 SLP968 T10111044
PALH 160916Z 04006KT 10SM BKN014 OVC075 M02/M04 A2945 RMK AO2 T10171044
PALH 160853Z 05006KT 10SM BKN070 OVC090 M02/M04 A2946 RMK AO2 SLP977 T10171044 410111061 58019
PALH 160818Z 03007KT 10SM SCT013 OVC065 M02/M04 A2948 RMK AO2 T10171044
PALH 160753Z 05005KT 10SM OVC014 M02/M04 A2949 RMK AO2 SLP986 T10171044
PALH 160737Z 04006KT 10SM BKN014 OVC065 M02/M05 A2949 RMK AO2 T10171050
PALH 160653Z 03007KT 10SM OVC065 M02/M05 A2951 RMK AO2 SLP993 T10171050
PALH 160553Z 03006KT 10SM OVC060 M02/M05 A2952 RMK AO2 SLP997 T10171050 11011 21033 58009
PALH 160453Z 05005KT 10SM OVC060 M03/M06 A2954 RMK AO2 SLP004 T10281056
PALH 160410Z 36004KT 10SM SCT022 BKN060 M03/M06 A2955 RMK AO2 T10281056
PALH 160353Z 01005KT 10SM BKN020 M03/M06 A2955 RMK AO2 SLP006 T10281056
PALH 160350Z 01006KT 10SM BKN020 M03/M06 A2954 RMK AO2
PALH 160327Z 36006KT 10SM SCT014 M03/M05 A2955 RMK AO2 T10281050
PALH 160311Z 35007KT 10SM SCT009 OVC015 M02/M04 A2955 RMK AO2 T10221044
PALH 160253Z 33005KT 10SM OVC008 M03/M04 A2954 RMK AO2 CIG 005V012 SLP006 T10281044 55001
PALH 160230Z 01003KT 10SM BKN006 M03/M04 A2954 RMK AO2 T10281044
PALH 160153Z 00000KT 10SM FEW007 SCT060 M03/M05 A2954 RMK AO2 SLP005 T10281050
PALH 160140Z 00000KT 10SM FEW008 BKN055 M02/M04 A2954 RMK AO2 T10221044
PALH 160053Z 04004KT 10SM CLR M02/M03 A2955 RMK AO2 SLP006 T10171033
PALH 152353Z 02005KT 10SM FEW055 M02/M03 A2955 RMK AO2 SLP007 T10171033 11017 21061 50006
PALH 152253Z 00000KT 10SM OVC055 M02/M03 A2955 RMK AO2 SLP007 T10171033
PALH 152153Z 00000KT 10SM CLR M04/M05 A2954 RMK AO2 SLP004 T10391050
PALH 152053Z 00000KT 10SM CLR M04/M06 A2953 RMK AO2 SLP001 T10441056 51031
PALH 151953Z 09003KT 10SM CLR M06/M07 A2950 RMK AO2 SLP991 T10561067
PALH 151853Z 00000KT 10SM CLR M06/M07 A2947 RMK AO2 SLP981 T10561067
PALH 151753Z 16003KT 10SM CLR M05/M06 A2944 RMK AO2 SLP969 T10501061 11028 21056 53023
PALH 151653Z 22004KT 10SM CLR M04/M06 A2941 RMK AO2 SLP961 T10391061
PALH 151553Z 00000KT 10SM CLR M04/M06 A2939 RMK AO2 SLP953 T10441061
PALH 151453Z 21004KT 10SM CLR M03/M06 A2937 RMK AO2 SLP946 T10331056 53006
PALH 151353Z 00000KT 10SM CLR M03/M06 A2935 RMK AO2 SLP940 T10331061
PALH 151253Z 00000KT 10SM CLR M03/M06 A2935 RMK AO2 SLP938 T10331061
PALH 151153Z 00000KT 10SM CLR M04/M06 A2935 RMK AO2 SLP939 T10441061 11022 21050 53000
PALH 151053Z 00000KT 10SM CLR M04/M06 A2935 RMK AO2 SLP939 T10391061